sensor_id;sensor_type;location;lat;lon;timestamp;pressure;altitude;pressure_sealevel;temperature;humidity
29417;BME280;28421;51.030;4.006;2023-05-10T03:19:58;101011.72;;;12.45;98.79
29417;BME280;28421;51.030;4.006;2023-05-10T03:22:41;100984.94;;;12.21;98.88
29417;BME280;28421;51.030;4.006;2023-05-10T03:25:10;101013.13;;;12.41;99.55
29417;BME280;28421;51.030;4.006;2023-05-10T03:27:40;101016.69;;;12.33;99.56
29417;BME280;28421;51.030;4.006;2023-05-10T03:30:13;101001.56;;;12.32;99.29
29417;BME280;28421;51.030;4.006;2023-05-10T03:32:39;101006.06;;;12.40;99.11
29417;BME280;28421;51.030;4.006;2023-05-10T03:35:11;100998.31;;;12.37;98.71
29417;BME280;28421;51.030;4.006;2023-05-10T03:37:38;100997.88;;;12.25;99.40
29417;BME280;28421;51.030;4.006;2023-05-10T03:40:05;101016.34;;;12.36;99.42
29417;BME280;28421;51.030;4.006;2023-05-10T03:42:33;101023.34;;;12.46;98.99
29417;BME280;28421;51.030;4.006;2023-05-10T03:44:58;101028.63;;;12.39;99.31
29417;BME280;28421;51.030;4.006;2023-05-10T03:47:24;101045.72;;;12.54;99.43
29417;BME280;28421;51.030;4.006;2023-05-10T03:49:49;101027.78;;;12.38;98.56
29417;BME280;28421;51.030;4.006;2023-05-10T03:52:15;101027.28;;;12.35;98.95
29417;BME280;28421;51.030;4.006;2023-05-10T03:54:40;101048.28;;;12.48;98.86
29417;BME280;28421;51.030;4.006;2023-05-10T03:57:06;101051.22;;;12.38;99.06
29417;BME280;28421;51.030;4.006;2023-05-10T03:59:31;101036.28;;;12.50;99.17
29417;BME280;28421;51.030;4.006;2023-05-10T04:01:57;101042.13;;;12.62;98.78
29417;BME280;28421;51.030;4.006;2023-05-10T04:04:22;101045.47;;;12.41;98.47
29417;BME280;28421;51.030;4.006;2023-05-10T04:06:49;101046.94;;;12.43;98.29
29417;BME280;28421;51.030;4.006;2023-05-10T04:09:15;101030.38;;;12.32;97.84
29417;BME280;28421;51.030;4.006;2023-05-10T04:11:41;101033.91;;;12.32;98.18
29417;BME280;28421;51.030;4.006;2023-05-10T04:14:07;101027.28;;;12.35;98.29
29417;BME280;28421;51.030;4.006;2023-05-10T04:16:32;101020.03;;;12.35;97.71
29417;BME280;28421;51.030;4.006;2023-05-10T04:18:57;101033.72;;;12.57;97.84
29417;BME280;28421;51.030;4.006;2023-05-10T04:21:23;101037.00;;;12.67;97.36
29417;BME280;28421;51.030;4.006;2023-05-10T04:23:48;101026.69;;;12.48;97.21
29417;BME280;28421;51.030;4.006;2023-05-10T04:26:15;101024.38;;;12.44;97.31
29417;BME280;28421;51.030;4.006;2023-05-10T04:28:40;101003.25;;;12.48;97.10
29417;BME280;28421;51.030;4.006;2023-05-10T04:31:07;101044.69;;;12.78;96.33
29417;BME280;28421;51.030;4.006;2023-05-10T04:33:33;101019.16;;;12.81;95.98
29417;BME280;28421;51.030;4.006;2023-05-10T04:35:59;101034.53;;;12.80;95.98
29417;BME280;28421;51.030;4.006;2023-05-10T04:38:25;101040.53;;;12.90;95.73
29417;BME280;28421;51.030;4.006;2023-05-10T04:40:51;101030.50;;;12.76;95.32
29417;BME280;28421;51.030;4.006;2023-05-10T04:43:16;101049.78;;;12.73;95.46
29417;BME280;28421;51.030;4.006;2023-05-10T04:45:42;101041.75;;;12.42;95.76
29417;BME280;28421;51.030;4.006;2023-05-10T04:48:07;101022.38;;;12.38;96.74
29417;BME280;28421;51.030;4.006;2023-05-10T04:50:33;101040.19;;;12.48;96.44
29417;BME280;28421;51.030;4.006;2023-05-10T04:52:58;101025.50;;;12.50;95.13
29417;BME280;28421;51.030;4.006;2023-05-10T04:55:24;101028.22;;;12.50;95.67
29417;BME280;28421;51.030;4.006;2023-05-10T04:57:50;101048.56;;;12.76;95.04
29417;BME280;28421;51.030;4.006;2023-05-10T05:00:16;101006.44;;;12.52;94.85
29417;BME280;28421;51.030;4.006;2023-05-10T05:02:45;101056.88;;;12.89;94.87
29417;BME280;28421;51.030;4.006;2023-05-10T05:05:11;101037.13;;;12.74;94.26
29417;BME280;28421;51.030;4.006;2023-05-10T05:07:37;101040.28;;;12.77;94.30
29417;BME280;28421;51.030;4.006;2023-05-10T05:10:07;101024.38;;;12.44;94.69
29417;BME280;28421;51.030;4.006;2023-05-10T05:12:34;101058.03;;;12.72;95.14
29417;BME280;28421;51.030;4.006;2023-05-10T05:14:59;101015.31;;;12.37;94.84
29417;BME280;28421;51.030;4.006;2023-05-10T05:17:25;101030.00;;;12.58;94.23
29417;BME280;28421;51.030;4.006;2023-05-10T05:19:50;101059.56;;;12.74;94.29
29417;BME280;28421;51.030;4.006;2023-05-10T05:22:16;101051.88;;;12.86;94.26
29417;BME280;28421;51.030;4.006;2023-05-10T05:24:42;101064.03;;;12.82;94.07
29417;BME280;28421;51.030;4.006;2023-05-10T05:27:07;101071.72;;;13.08;93.21
29417;BME280;28421;51.030;4.006;2023-05-10T05:29:33;101074.69;;;12.98;92.99
29417;BME280;28421;51.030;4.006;2023-05-10T05:31:58;101068.91;;;13.01;92.37
29417;BME280;28421;51.030;4.006;2023-05-10T05:34:24;101075.91;;;13.10;92.60
29417;BME280;28421;51.030;4.006;2023-05-10T05:36:49;101060.31;;;13.21;92.47
29417;BME280;28421;51.030;4.006;2023-05-10T05:39:15;101088.94;;;13.30;91.55
29417;BME280;28421;51.030;4.006;2023-05-10T05:41:41;101071.88;;;13.29;91.45
29417;BME280;28421;51.030;4.006;2023-05-10T05:44:06;101085.13;;;13.54;90.79
29417;BME280;28421;51.030;4.006;2023-05-10T05:46:32;101088.94;;;13.59;90.24
29417;BME280;28421;51.030;4.006;2023-05-10T05:48:57;101084.97;;;13.70;89.82
29417;BME280;28421;51.030;4.006;2023-05-10T05:51:23;101076.00;;;13.55;89.44
29417;BME280;28421;51.030;4.006;2023-05-10T05:53:48;101085.31;;;13.67;89.02
29417;BME280;28421;51.030;4.006;2023-05-10T05:56:13;101098.06;;;13.29;90.95
29417;BME280;28421;51.030;4.006;2023-05-10T05:58:39;101097.13;;;13.51;90.84
29417;BME280;28421;51.030;4.006;2023-05-10T06:01:04;101098.28;;;13.57;90.20
29417;BME280;28421;51.030;4.006;2023-05-10T06:03:30;101103.47;;;13.43;90.07
29417;BME280;28421;51.030;4.006;2023-05-10T06:05:55;101095.34;;;13.29;90.73
29417;BME280;28421;51.030;4.006;2023-05-10T06:08:21;101088.44;;;13.26;90.38
29417;BME280;28421;51.030;4.006;2023-05-10T06:10:46;101104.50;;;13.42;90.19
29417;BME280;28421;51.030;4.006;2023-05-10T06:13:12;101110.09;;;13.56;90.68
29417;BME280;28421;51.030;4.006;2023-05-10T06:15:38;101111.31;;;13.68;90.29
29417;BME280;28421;51.030;4.006;2023-05-10T06:18:03;101107.13;;;13.65;89.62
29417;BME280;28421;51.030;4.006;2023-05-10T06:20:29;101114.38;;;13.80;89.27
29417;BME280;28421;51.030;4.006;2023-05-10T06:22:57;101104.06;;;13.68;89.20
29417;BME280;28421;51.030;4.006;2023-05-10T06:25:22;101113.34;;;13.81;89.26
29417;BME280;28421;51.030;4.006;2023-05-10T06:27:48;101124.84;;;13.98;89.12
29417;BME280;28421;51.030;4.006;2023-05-10T06:30:14;101115.16;;;13.74;88.78
29417;BME280;28421;51.030;4.006;2023-05-10T06:32:41;101116.88;;;13.14;91.46
29417;BME280;28421;51.030;4.006;2023-05-10T06:35:07;101121.38;;;13.59;91.61
29417;BME280;28421;51.030;4.006;2023-05-10T06:37:33;101136.38;;;13.77;90.90
29417;BME280;28421;51.030;4.006;2023-05-10T06:39:59;101122.59;;;13.72;90.44
29417;BME280;28421;51.030;4.006;2023-05-10T06:42:24;101135.44;;;13.55;90.00
29417;BME280;28421;51.030;4.006;2023-05-10T06:44:51;101138.16;;;13.70;90.79
29417;BME280;28421;51.030;4.006;2023-05-10T06:47:17;101136.28;;;13.55;91.22
29417;BME280;28421;51.030;4.006;2023-05-10T06:49:42;101117.56;;;13.54;90.62
29417;BME280;28421;51.030;4.006;2023-05-10T06:52:07;101130.16;;;13.61;91.14
29417;BME280;28421;51.030;4.006;2023-05-10T06:54:33;101149.44;;;13.73;90.73
29417;BME280;28421;51.030;4.006;2023-05-10T06:56:58;101126.97;;;13.58;91.42
29417;BME280;28421;51.030;4.006;2023-05-10T06:59:24;101137.25;;;13.77;90.78
29417;BME280;28421;51.030;4.006;2023-05-10T07:01:50;101147.06;;;13.55;90.73
29417;BME280;28421;51.030;4.006;2023-05-10T07:04:15;101138.97;;;13.55;91.13
29417;BME280;28421;51.030;4.006;2023-05-10T07:06:41;101152.22;;;13.80;90.43
29417;BME280;28421;51.030;4.006;2023-05-10T07:09:06;101130.97;;;13.62;90.70
29417;BME280;28421;51.030;4.006;2023-05-10T07:11:32;101140.94;;;13.61;90.97
29417;BME280;28421;51.030;4.006;2023-05-10T07:13:58;101150.09;;;13.60;91.17
29417;BME280;28421;51.030;4.006;2023-05-10T07:16:23;101153.97;;;13.73;91.03
29417;BME280;28421;51.030;4.006;2023-05-10T07:18:49;101148.31;;;13.67;90.49
29417;BME280;28421;51.030;4.006;2023-05-10T07:21:15;101158.19;;;13.75;90.44
29417;BME280;28421;51.030;4.006;2023-05-10T07:23:41;101159.78;;;13.70;90.91
29417;BME280;28421;51.030;4.006;2023-05-10T07:26:06;101149.41;;;13.21;92.37
29417;BME280;28421;51.030;4.006;2023-05-10T07:28:32;101164.03;;;13.49;92.42
29417;BME280;28421;51.030;4.006;2023-05-10T07:30:58;101144.38;;;13.40;92.23
29417;BME280;28421;51.030;4.006;2023-05-10T07:33:23;101144.69;;;13.60;92.04
29417;BME280;28421;51.030;4.006;2023-05-10T07:35:49;101151.66;;;13.84;91.14
29417;BME280;28421;51.030;4.006;2023-05-10T07:38:15;101154.47;;;14.21;90.47
29417;BME280;28421;51.030;4.006;2023-05-10T07:40:40;101163.13;;;14.31;89.93
29417;BME280;28421;51.030;4.006;2023-05-10T07:43:06;101166.56;;;14.39;89.14
29417;BME280;28421;51.030;4.006;2023-05-10T07:45:33;101175.03;;;14.51;88.51
29417;BME280;28421;51.030;4.006;2023-05-10T07:47:58;101172.88;;;14.47;87.53
29417;BME280;28421;51.030;4.006;2023-05-10T07:50:24;101169.69;;;14.43;86.85
29417;BME280;28421;51.030;4.006;2023-05-10T07:52:49;101177.97;;;14.20;87.08
29417;BME280;28421;51.030;4.006;2023-05-10T07:55:15;101171.72;;;14.20;86.88
29417;BME280;28421;51.030;4.006;2023-05-10T07:57:41;101173.50;;;14.27;87.22
29417;BME280;28421;51.030;4.006;2023-05-10T08:00:07;101186.91;;;14.35;86.40
29417;BME280;28421;51.030;4.006;2023-05-10T08:02:38;101173.03;;;14.24;86.93
29417;BME280;28421;51.030;4.006;2023-05-10T08:05:04;101189.78;;;14.34;86.37
29417;BME280;28421;51.030;4.006;2023-05-10T08:07:30;101184.78;;;14.31;86.85
29417;BME280;28421;51.030;4.006;2023-05-10T08:09:56;101187.47;;;14.31;86.60
29417;BME280;28421;51.030;4.006;2023-05-10T08:12:21;101190.47;;;14.06;87.59
29417;BME280;28421;51.030;4.006;2023-05-10T08:14:47;101183.47;;;14.27;87.04
29417;BME280;28421;51.030;4.006;2023-05-10T08:17:12;101188.19;;;14.54;86.24
29417;BME280;28421;51.030;4.006;2023-05-10T08:19:38;101199.03;;;14.54;86.28
29417;BME280;28421;51.030;4.006;2023-05-10T08:22:03;101200.13;;;14.45;85.42
29417;BME280;28421;51.030;4.006;2023-05-10T08:24:29;101195.09;;;14.42;85.44
29417;BME280;28421;51.030;4.006;2023-05-10T08:26:54;101200.69;;;14.26;85.66
29417;BME280;28421;51.030;4.006;2023-05-10T08:29:20;101199.69;;;14.12;85.93
29417;BME280;28421;51.030;4.006;2023-05-10T08:31:45;101211.06;;;14.07;86.05
29417;BME280;28421;51.030;4.006;2023-05-10T08:34:11;101211.44;;;14.19;86.86
29417;BME280;28421;51.030;4.006;2023-05-10T08:36:36;101212.91;;;14.22;86.44
29417;BME280;28421;51.030;4.006;2023-05-10T08:39:02;101216.47;;;14.37;86.33
29417;BME280;28421;51.030;4.006;2023-05-10T08:41:28;101216.19;;;14.61;85.42
29417;BME280;28421;51.030;4.006;2023-05-10T08:43:55;101213.13;;;14.50;84.78
29417;BME280;28421;51.030;4.006;2023-05-10T08:46:21;101205.84;;;14.35;85.44
29417;BME280;28421;51.030;4.006;2023-05-10T08:48:49;101227.94;;;14.69;84.93
29417;BME280;28421;51.030;4.006;2023-05-10T08:51:19;101225.66;;;14.72;83.24
29417;BME280;28421;51.030;4.006;2023-05-10T08:53:47;101221.81;;;14.60;83.57
29417;BME280;28421;51.030;4.006;2023-05-10T08:56:12;101234.47;;;14.59;84.48
29417;BME280;28421;51.030;4.006;2023-05-10T08:58:38;101220.59;;;14.84;84.16
29417;BME280;28421;51.030;4.006;2023-05-10T09:01:07;101231.03;;;15.23;82.64
29417;BME280;28421;51.030;4.006;2023-05-10T09:03:34;101204.66;;;15.32;81.82
29417;BME280;28421;51.030;4.006;2023-05-10T09:06:00;101222.66;;;15.39;80.91
29417;BME280;28421;51.030;4.006;2023-05-10T09:08:26;101189.09;;;15.19;80.88
29417;BME280;28421;51.030;4.006;2023-05-10T09:10:52;101203.75;;;15.03;80.48
29417;BME280;28421;51.030;4.006;2023-05-10T09:13:19;101240.56;;;14.98;79.96
29417;BME280;28421;51.030;4.006;2023-05-10T09:15:45;101228.91;;;15.19;80.90
29417;BME280;28421;51.030;4.006;2023-05-10T09:18:12;101217.41;;;15.38;79.79
29417;BME280;28421;51.030;4.006;2023-05-10T09:20:37;101234.06;;;15.35;80.26
29417;BME280;28421;51.030;4.006;2023-05-10T09:23:03;101239.88;;;15.10;79.82
29417;BME280;28421;51.030;4.006;2023-05-10T09:25:28;101227.03;;;15.19;80.28
29417;BME280;28421;51.030;4.006;2023-05-10T09:27:54;101240.25;;;15.29;79.07
29417;BME280;28421;51.030;4.006;2023-05-10T09:32:50;101227.41;;;15.37;80.97
29417;BME280;28421;51.030;4.006;2023-05-10T09:35:18;101240.66;;;15.97;78.98
29417;BME280;28421;51.030;4.006;2023-05-10T09:37:47;101262.28;;;16.18;76.96
29417;BME280;28421;51.030;4.006;2023-05-10T09:40:21;101259.88;;;16.36;76.49
29417;BME280;28421;51.030;4.006;2023-05-10T09:45:27;101250.34;;;16.12;76.67
29417;BME280;28421;51.030;4.006;2023-05-10T09:47:53;101247.53;;;16.34;76.75
29417;BME280;28421;51.030;4.006;2023-05-10T09:50:20;101277.53;;;16.19;76.18
29417;BME280;28421;51.030;4.006;2023-05-10T09:52:53;101277.97;;;16.23;76.56
29417;BME280;28421;51.030;4.006;2023-05-10T09:55:21;101275.44;;;16.21;75.80
29417;BME280;28421;51.030;4.006;2023-05-10T09:57:47;101258.59;;;16.26;75.20
29417;BME280;28421;51.030;4.006;2023-05-10T10:00:20;101217.13;;;16.45;74.49
29417;BME280;28421;51.030;4.006;2023-05-10T10:02:54;101255.94;;;16.39;74.82
29417;BME280;28421;51.030;4.006;2023-05-10T10:05:20;101254.97;;;16.53;74.75
29417;BME280;28421;51.030;4.006;2023-05-10T10:07:46;101254.38;;;16.64;72.82
29417;BME280;28421;51.030;4.006;2023-05-10T10:10:12;101258.88;;;16.44;75.13
29417;BME280;28421;51.030;4.006;2023-05-10T10:12:39;101262.06;;;16.54;74.31
29417;BME280;28421;51.030;4.006;2023-05-10T10:15:07;101261.69;;;16.64;73.49
29417;BME280;28421;51.030;4.006;2023-05-10T10:17:35;101265.63;;;16.55;74.51
29417;BME280;28421;51.030;4.006;2023-05-10T10:20:02;101247.38;;;16.83;75.55
29417;BME280;28421;51.030;4.006;2023-05-10T10:22:28;101259.19;;;17.24;73.53
29417;BME280;28421;51.030;4.006;2023-05-10T10:24:54;101264.47;;;17.38;72.48
29417;BME280;28421;51.030;4.006;2023-05-10T10:27:35;101267.84;;;17.74;72.33
29417;BME280;28421;51.030;4.006;2023-05-10T10:35:37;101262.19;;;17.42;71.29
29417;BME280;28421;51.030;4.006;2023-05-10T10:38:02;101269.28;;;17.50;70.80
29417;BME280;28421;51.030;4.006;2023-05-10T10:40:29;101253.53;;;17.12;71.42
29417;BME280;28421;51.030;4.006;2023-05-10T10:42:56;101268.66;;;17.48;71.49
29417;BME280;28421;51.030;4.006;2023-05-10T10:45:23;101272.63;;;17.45;69.98
29417;BME280;28421;51.030;4.006;2023-05-10T10:47:54;101250.66;;;17.67;69.90
29417;BME280;28421;51.030;4.006;2023-05-10T10:50:47;101265.53;;;17.57;69.44
29417;BME280;28421;51.030;4.006;2023-05-10T10:53:21;101272.22;;;17.61;70.12
29417;BME280;28421;51.030;4.006;2023-05-10T10:55:47;101252.16;;;17.56;69.99
29417;BME280;28421;51.030;4.006;2023-05-10T10:58:30;101271.34;;;17.41;70.11
29417;BME280;28421;51.030;4.006;2023-05-10T11:01:33;101267.56;;;17.29;70.76
29417;BME280;28421;51.030;4.006;2023-05-10T11:06:31;101267.63;;;17.95;71.23
29417;BME280;28421;51.030;4.006;2023-05-10T11:08:57;101267.44;;;18.03;69.26
29417;BME280;28421;51.030;4.006;2023-05-10T11:11:23;101265.41;;;17.04;69.92
29417;BME280;28421;51.030;4.006;2023-05-10T11:13:49;101270.16;;;17.90;70.43
29417;BME280;28421;51.030;4.006;2023-05-10T11:16:15;101265.34;;;17.79;69.23
29417;BME280;28421;51.030;4.006;2023-05-10T11:18:52;101267.88;;;17.80;69.23
29417;BME280;28421;51.030;4.006;2023-05-10T11:21:19;101265.78;;;17.76;69.35
29417;BME280;28421;51.030;4.006;2023-05-10T11:26:13;101270.34;;;18.15;67.66
29417;BME280;28421;51.030;4.006;2023-05-10T11:28:48;101262.63;;;18.05;68.48
29417;BME280;28421;51.030;4.006;2023-05-10T11:31:18;101257.59;;;17.82;66.96
29417;BME280;28421;51.030;4.006;2023-05-10T11:33:45;101268.03;;;18.12;65.57
29417;BME280;28421;51.030;4.006;2023-05-10T11:36:15;101266.59;;;17.83;65.19
29417;BME280;28421;51.030;4.006;2023-05-10T11:38:41;101272.66;;;17.98;66.41
29417;BME280;28421;51.030;4.006;2023-05-10T11:41:11;101265.16;;;17.94;65.71
29417;BME280;28421;51.030;4.006;2023-05-10T11:43:38;101276.00;;;18.07;65.76
29417;BME280;28421;51.030;4.006;2023-05-10T11:46:06;101251.09;;;18.17;66.19
29417;BME280;28421;51.030;4.006;2023-05-10T11:48:31;101264.31;;;17.93;64.13
29417;BME280;28421;51.030;4.006;2023-05-10T11:50:57;101256.09;;;18.20;64.47
29417;BME280;28421;51.030;4.006;2023-05-10T11:53:26;101269.97;;;17.85;65.19
29417;BME280;28421;51.030;4.006;2023-05-10T11:55:51;101257.19;;;18.05;64.77
29417;BME280;28421;51.030;4.006;2023-05-10T11:58:18;101266.81;;;17.81;65.45
29417;BME280;28421;51.030;4.006;2023-05-10T12:00:44;101258.03;;;17.93;65.68
29417;BME280;28421;51.030;4.006;2023-05-10T12:03:11;101271.66;;;17.79;66.12
29417;BME280;28421;51.030;4.006;2023-05-10T12:05:37;101270.78;;;17.79;67.31
29417;BME280;28421;51.030;4.006;2023-05-10T12:08:20;101263.63;;;17.45;68.40
29417;BME280;28421;51.030;4.006;2023-05-10T12:10:46;101257.38;;;17.64;68.77
29417;BME280;28421;51.030;4.006;2023-05-10T12:13:13;101265.13;;;17.60;68.09
29417;BME280;28421;51.030;4.006;2023-05-10T12:15:40;101248.94;;;17.12;66.94
29417;BME280;28421;51.030;4.006;2023-05-10T12:18:08;101238.06;;;17.12;68.29
29417;BME280;28421;51.030;4.006;2023-05-10T12:20:42;101232.19;;;16.48;69.70
29417;BME280;28421;51.030;4.006;2023-05-10T12:23:11;101248.25;;;16.90;69.52
29417;BME280;28421;51.030;4.006;2023-05-10T12:25:43;101235.38;;;16.64;69.63
29417;BME280;28421;51.030;4.006;2023-05-10T12:28:13;101265.56;;;16.76;69.64
29417;BME280;28421;51.030;4.006;2023-05-10T12:30:38;101249.88;;;16.78;69.83
29417;BME280;28421;51.030;4.006;2023-05-10T12:33:10;101251.25;;;16.61;69.32
29417;BME280;28421;51.030;4.006;2023-05-10T12:35:45;101277.94;;;16.92;72.61
29417;BME280;28421;51.030;4.006;2023-05-10T12:41:00;101281.56;;;16.71;71.50
29417;BME280;28421;51.030;4.006;2023-05-10T12:43:26;101245.28;;;16.79;72.00
29417;BME280;28421;51.030;4.006;2023-05-10T12:45:52;101251.19;;;16.89;71.43
29417;BME280;28421;51.030;4.006;2023-05-10T12:48:18;101266.56;;;16.75;72.02
29417;BME280;28421;51.030;4.006;2023-05-10T12:50:43;101253.41;;;16.79;71.09
29417;BME280;28421;51.030;4.006;2023-05-10T12:53:09;101268.03;;;16.08;73.73
29417;BME280;28421;51.030;4.006;2023-05-10T12:55:34;101246.75;;;16.40;72.80
29417;BME280;28421;51.030;4.006;2023-05-10T12:58:00;101249.09;;;16.50;72.45
29417;BME280;28421;51.030;4.006;2023-05-10T13:00:26;101290.31;;;17.08;71.22
29417;BME280;28421;51.030;4.006;2023-05-10T13:02:51;101276.16;;;17.26;70.07
29417;BME280;28421;51.030;4.006;2023-05-10T13:05:17;101292.72;;;17.51;70.34
29417;BME280;28421;51.030;4.006;2023-05-10T13:07:43;101264.69;;;17.63;68.55
29417;BME280;28421;51.030;4.006;2023-05-10T13:10:09;101250.88;;;17.52;67.07
29417;BME280;28421;51.030;4.006;2023-05-10T13:12:35;101251.75;;;17.99;67.34
29417;BME280;28421;51.030;4.006;2023-05-10T13:15:01;101240.81;;;18.19;65.83
29417;BME280;28421;51.030;4.006;2023-05-10T13:17:28;101255.06;;;18.14;63.41
29417;BME280;28421;51.030;4.006;2023-05-10T13:19:54;101287.09;;;18.97;64.51
29417;BME280;28421;51.030;4.006;2023-05-10T13:22:19;101290.13;;;19.20;62.84
29417;BME280;28421;51.030;4.006;2023-05-10T13:24:45;101292.03;;;19.51;62.34
29417;BME280;28421;51.030;4.006;2023-05-10T13:27:10;101286.59;;;19.45;62.67
29417;BME280;28421;51.030;4.006;2023-05-10T13:29:35;101293.41;;;18.91;62.88
29417;BME280;28421;51.030;4.006;2023-05-10T13:32:01;101285.09;;;19.17;63.05
29417;BME280;28421;51.030;4.006;2023-05-10T13:34:27;101275.13;;;18.98;63.53
29417;BME280;28421;51.030;4.006;2023-05-10T13:36:53;101288.91;;;18.51;65.01
29417;BME280;28421;51.030;4.006;2023-05-10T13:39:20;101275.81;;;18.02;66.48
29417;BME280;28421;51.030;4.006;2023-05-10T13:41:45;101280.84;;;17.78;67.66
29417;BME280;28421;51.030;4.006;2023-05-10T13:44:14;101270.75;;;17.52;66.97
29417;BME280;28421;51.030;4.006;2023-05-10T13:46:41;101290.16;;;17.36;69.38
29417;BME280;28421;51.030;4.006;2023-05-10T13:49:08;101290.94;;;17.17;68.39
29417;BME280;28421;51.030;4.006;2023-05-10T13:51:34;101306.50;;;16.81;71.13
29417;BME280;28421;51.030;4.006;2023-05-10T13:54:01;101244.22;;;16.04;71.17
29417;BME280;28421;51.030;4.006;2023-05-10T13:56:27;101263.34;;;15.46;73.31
29417;BME280;28421;51.030;4.006;2023-05-10T13:58:52;101291.88;;;15.63;72.95
29417;BME280;28421;51.030;4.006;2023-05-10T14:01:18;101310.09;;;15.55;74.90
29417;BME280;28421;51.030;4.006;2023-05-10T14:03:43;101308.44;;;15.54;76.34
29417;BME280;28421;51.030;4.006;2023-05-10T14:06:09;101288.63;;;15.32;76.93
29417;BME280;28421;51.030;4.006;2023-05-10T14:08:35;101309.84;;;14.92;80.43
29417;BME280;28421;51.030;4.006;2023-05-10T14:11:01;101267.84;;;14.22;84.88
29417;BME280;28421;51.030;4.006;2023-05-10T14:13:26;101311.53;;;14.78;84.58
29417;BME280;28421;51.030;4.006;2023-05-10T14:15:53;101275.63;;;14.70;84.80
29417;BME280;28421;51.030;4.006;2023-05-10T14:18:18;101307.22;;;14.99;86.23
29417;BME280;28421;51.030;4.006;2023-05-10T14:20:44;101322.88;;;15.18;85.32
29417;BME280;28421;51.030;4.006;2023-05-10T14:23:09;101300.34;;;15.17;86.12
29417;BME280;28421;51.030;4.006;2023-05-10T14:25:35;101305.00;;;15.24;85.81
29417;BME280;28421;51.030;4.006;2023-05-10T14:28:01;101302.44;;;15.37;86.28
29417;BME280;28421;51.030;4.006;2023-05-10T14:30:27;101296.63;;;15.19;85.67
29417;BME280;28421;51.030;4.006;2023-05-10T14:32:52;101294.59;;;15.63;86.61
29417;BME280;28421;51.030;4.006;2023-05-10T14:35:19;101303.88;;;15.76;84.57
29417;BME280;28421;51.030;4.006;2023-05-10T14:37:45;101280.06;;;15.71;84.23
29417;BME280;28421;51.030;4.006;2023-05-10T14:40:11;101301.09;;;15.90;82.11
29417;BME280;28421;51.030;4.006;2023-05-10T14:42:37;101296.31;;;15.93;83.00
29417;BME280;28421;51.030;4.006;2023-05-10T14:45:03;101287.91;;;15.87;83.69
29417;BME280;28421;51.030;4.006;2023-05-10T14:47:29;101308.00;;;15.93;83.39
29417;BME280;28421;51.030;4.006;2023-05-10T14:49:54;101311.22;;;16.03;81.70
29417;BME280;28421;51.030;4.006;2023-05-10T14:52:20;101300.22;;;16.11;82.55
29417;BME280;28421;51.030;4.006;2023-05-10T14:54:45;101303.06;;;16.03;82.37
29417;BME280;28421;51.030;4.006;2023-05-10T14:57:11;101305.00;;;16.09;82.07
29417;BME280;28421;51.030;4.006;2023-05-10T14:59:36;101273.53;;;15.87;82.10
29417;BME280;28421;51.030;4.006;2023-05-10T15:02:02;101321.75;;;16.20;82.56
29417;BME280;28421;51.030;4.006;2023-05-10T15:04:29;101322.84;;;16.25;81.41
29417;BME280;28421;51.030;4.006;2023-05-10T15:06:55;101319.97;;;15.77;83.38
29417;BME280;28421;51.030;4.006;2023-05-10T15:09:24;101314.31;;;16.00;84.41
29417;BME280;28421;51.030;4.006;2023-05-10T15:11:50;101314.66;;;15.90;85.05
29417;BME280;28421;51.030;4.006;2023-05-10T15:14:16;101299.34;;;15.83;83.22
29417;BME280;28421;51.030;4.006;2023-05-10T15:16:41;101335.44;;;15.83;83.08
29417;BME280;28421;51.030;4.006;2023-05-10T15:19:07;101328.66;;;15.51;84.26
29417;BME280;28421;51.030;4.006;2023-05-10T15:21:32;101332.09;;;15.24;85.78
29417;BME280;28421;51.030;4.006;2023-05-10T15:24:07;101329.50;;;15.15;84.43
29417;BME280;28421;51.030;4.006;2023-05-10T15:26:33;101317.47;;;15.03;84.94
29417;BME280;28421;51.030;4.006;2023-05-10T15:28:58;101309.19;;;14.90;85.16
29417;BME280;28421;51.030;4.006;2023-05-10T15:31:24;101326.47;;;14.74;85.80
29417;BME280;28421;51.030;4.006;2023-05-10T15:33:49;101346.63;;;14.72;86.27
29417;BME280;28421;51.030;4.006;2023-05-10T15:36:15;101325.63;;;14.44;87.14
29417;BME280;28421;51.030;4.006;2023-05-10T15:38:42;101338.63;;;14.11;88.63
29417;BME280;28421;51.030;4.006;2023-05-10T15:41:08;101353.84;;;13.89;90.59
29417;BME280;28421;51.030;4.006;2023-05-10T15:43:33;101341.41;;;14.03;92.07
29417;BME280;28421;51.030;4.006;2023-05-10T15:45:59;101331.53;;;14.10;92.36
29417;BME280;28421;51.030;4.006;2023-05-10T15:48:24;101346.00;;;14.17;92.72
29417;BME280;28421;51.030;4.006;2023-05-10T15:50:50;101338.16;;;14.22;92.98
29417;BME280;28421;51.030;4.006;2023-05-10T15:53:16;101341.81;;;14.29;92.47
29417;BME280;28421;51.030;4.006;2023-05-10T15:55:41;101351.38;;;14.40;93.03
29417;BME280;28421;51.030;4.006;2023-05-10T15:58:07;101361.22;;;14.56;92.79
29417;BME280;28421;51.030;4.006;2023-05-10T16:00:32;101356.53;;;14.64;92.18
29417;BME280;28421;51.030;4.006;2023-05-10T16:02:58;101350.38;;;14.56;91.55
29417;BME280;28421;51.030;4.006;2023-05-10T16:05:23;101363.44;;;14.52;92.18
29417;BME280;28421;51.030;4.006;2023-05-10T16:07:51;101350.31;;;14.41;92.08
29417;BME280;28421;51.030;4.006;2023-05-10T16:10:17;101364.44;;;14.51;91.68
29417;BME280;28421;51.030;4.006;2023-05-10T16:12:42;101364.63;;;14.50;91.88
29417;BME280;28421;51.030;4.006;2023-05-10T16:15:08;101347.75;;;14.48;92.35
29417;BME280;28421;51.030;4.006;2023-05-10T16:17:34;101370.16;;;14.56;92.77
29417;BME280;28421;51.030;4.006;2023-05-10T16:20:01;101364.50;;;14.43;92.45
29417;BME280;28421;51.030;4.006;2023-05-10T16:22:26;101362.88;;;14.57;92.74
29417;BME280;28421;51.030;4.006;2023-05-10T16:24:53;101367.84;;;14.68;91.57